sensor_id;sensor_type;location;lat;lon;timestamp;temperature;humidity
66019;HTU21D;52787;51.084;5.816;2024-03-25T00:01:35;7.10;79.22
66019;HTU21D;52787;51.084;5.816;2024-03-25T00:04:01;7.08;79.04
66019;HTU21D;52787;51.084;5.816;2024-03-25T00:06:27;7.07;79.06
66019;HTU21D;52787;51.084;5.816;2024-03-25T00:08:53;7.01;79.25
66019;HTU21D;52787;51.084;5.816;2024-03-25T00:11:19;6.97;79.39
66019;HTU21D;52787;51.084;5.816;2024-03-25T00:13:44;6.93;79.59
66019;HTU21D;52787;51.084;5.816;2024-03-25T00:16:10;6.91;79.69
66019;HTU21D;52787;51.084;5.816;2024-03-25T00:18:36;6.89;79.69
66019;HTU21D;52787;51.084;5.816;2024-03-25T00:21:02;6.89;79.97
66019;HTU21D;52787;51.084;5.816;2024-03-25T00:23:27;6.89;79.85
66019;HTU21D;52787;51.084;5.816;2024-03-25T00:25:53;6.89;79.67
66019;HTU21D;52787;51.084;5.816;2024-03-25T00:28:19;6.90;79.62
66019;HTU21D;52787;51.084;5.816;2024-03-25T00:30:45;6.88;79.53
66019;HTU21D;52787;51.084;5.816;2024-03-25T00:33:11;6.86;79.38
66019;HTU21D;52787;51.084;5.816;2024-03-25T00:35:36;6.82;79.63
66019;HTU21D;52787;51.084;5.816;2024-03-25T00:38:03;6.80;79.90
66019;HTU21D;52787;51.084;5.816;2024-03-25T00:40:29;6.75;79.76
66019;HTU21D;52787;51.084;5.816;2024-03-25T00:42:55;6.68;79.85
66019;HTU21D;52787;51.084;5.816;2024-03-25T00:45:21;6.60;80.25
66019;HTU21D;52787;51.084;5.816;2024-03-25T00:47:47;6.53;80.72
66019;HTU21D;52787;51.084;5.816;2024-03-25T00:50:13;6.50;81.04
66019;HTU21D;52787;51.084;5.816;2024-03-25T00:52:40;6.48;81.35
66019;HTU21D;52787;51.084;5.816;2024-03-25T00:55:06;6.44;81.81
66019;HTU21D;52787;51.084;5.816;2024-03-25T00:57:33;6.43;82.22
66019;HTU21D;52787;51.084;5.816;2024-03-25T00:59:59;6.48;82.37
66019;HTU21D;52787;51.084;5.816;2024-03-25T01:02:25;6.46;82.40
66019;HTU21D;52787;51.084;5.816;2024-03-25T01:04:52;6.49;82.64
66019;HTU21D;52787;51.084;5.816;2024-03-25T01:07:19;6.43;82.63
66019;HTU21D;52787;51.084;5.816;2024-03-25T01:09:45;6.42;82.71
66019;HTU21D;52787;51.084;5.816;2024-03-25T01:12:11;6.41;82.78
66019;HTU21D;52787;51.084;5.816;2024-03-25T01:14:36;6.46;82.87
66019;HTU21D;52787;51.084;5.816;2024-03-25T01:17:02;6.44;83.09
66019;HTU21D;52787;51.084;5.816;2024-03-25T01:19:28;6.40;83.17
66019;HTU21D;52787;51.084;5.816;2024-03-25T01:21:54;6.36;83.06
66019;HTU21D;52787;51.084;5.816;2024-03-25T01:24:20;6.29;83.22
66019;HTU21D;52787;51.084;5.816;2024-03-25T01:26:46;6.31;83.63
66019;HTU21D;52787;51.084;5.816;2024-03-25T01:29:11;6.30;83.99
66019;HTU21D;52787;51.084;5.816;2024-03-25T01:31:38;6.34;83.82
66019;HTU21D;52787;51.084;5.816;2024-03-25T01:34:03;6.31;83.68
66019;HTU21D;52787;51.084;5.816;2024-03-25T01:36:29;6.29;83.66
66019;HTU21D;52787;51.084;5.816;2024-03-25T01:38:55;6.24;83.86
66019;HTU21D;52787;51.084;5.816;2024-03-25T01:41:22;6.21;83.87
66019;HTU21D;52787;51.084;5.816;2024-03-25T01:43:49;6.22;83.95
66019;HTU21D;52787;51.084;5.816;2024-03-25T01:46:16;6.21;83.90
66019;HTU21D;52787;51.084;5.816;2024-03-25T01:48:43;6.23;83.73
66019;HTU21D;52787;51.084;5.816;2024-03-25T01:51:12;6.23;83.65
66019;HTU21D;52787;51.084;5.816;2024-03-25T01:53:39;6.25;83.31
66019;HTU21D;52787;51.084;5.816;2024-03-25T01:56:06;6.25;83.26
66019;HTU21D;52787;51.084;5.816;2024-03-25T01:58:33;6.23;83.50
66019;HTU21D;52787;51.084;5.816;2024-03-25T02:00:59;6.26;83.49
66019;HTU21D;52787;51.084;5.816;2024-03-25T02:03:29;6.31;83.32
66019;HTU21D;52787;51.084;5.816;2024-03-25T02:05:59;6.35;83.10
66019;HTU21D;52787;51.084;5.816;2024-03-25T02:08:28;6.38;82.91
66019;HTU21D;52787;51.084;5.816;2024-03-25T02:10:58;6.41;82.46
66019;HTU21D;52787;51.084;5.816;2024-03-25T02:13:25;6.35;82.51
66019;HTU21D;52787;51.084;5.816;2024-03-25T02:15:51;6.33;82.68
66019;HTU21D;52787;51.084;5.816;2024-03-25T02:18:17;6.34;82.69
66019;HTU21D;52787;51.084;5.816;2024-03-25T02:20:44;6.30;82.77
66019;HTU21D;52787;51.084;5.816;2024-03-25T02:23:11;6.30;82.71
66019;HTU21D;52787;51.084;5.816;2024-03-25T02:25:40;6.30;82.67
66019;HTU21D;52787;51.084;5.816;2024-03-25T02:28:07;6.28;82.91
66019;HTU21D;52787;51.084;5.816;2024-03-25T02:30:33;6.30;83.00
66019;HTU21D;52787;51.084;5.816;2024-03-25T02:32:59;6.35;82.74
66019;HTU21D;52787;51.084;5.816;2024-03-25T02:35:26;6.39;82.49
66019;HTU21D;52787;51.084;5.816;2024-03-25T02:37:53;6.40;82.40
66019;HTU21D;52787;51.084;5.816;2024-03-25T02:40:20;6.44;82.06
66019;HTU21D;52787;51.084;5.816;2024-03-25T02:42:47;6.43;81.72
66019;HTU21D;52787;51.084;5.816;2024-03-25T02:45:13;6.44;81.73
66019;HTU21D;52787;51.084;5.816;2024-03-25T02:47:39;6.45;81.50
66019;HTU21D;52787;51.084;5.816;2024-03-25T02:50:05;6.48;81.14
66019;HTU21D;52787;51.084;5.816;2024-03-25T02:52:31;6.48;80.68
66019;HTU21D;52787;51.084;5.816;2024-03-25T02:54:56;6.50;80.43
66019;HTU21D;52787;51.084;5.816;2024-03-25T02:57:22;6.51;80.30
66019;HTU21D;52787;51.084;5.816;2024-03-25T02:59:49;6.49;79.71
66019;HTU21D;52787;51.084;5.816;2024-03-25T03:02:14;6.39;79.82
66019;HTU21D;52787;51.084;5.816;2024-03-25T03:04:40;6.31;80.30
66019;HTU21D;52787;51.084;5.816;2024-03-25T03:07:06;6.34;80.19
66019;HTU21D;52787;51.084;5.816;2024-03-25T03:09:31;6.30;79.95
66019;HTU21D;52787;51.084;5.816;2024-03-25T03:11:58;6.27;79.99
66019;HTU21D;52787;51.084;5.816;2024-03-25T03:14:24;6.29;79.75
66019;HTU21D;52787;51.084;5.816;2024-03-25T03:16:50;6.26;79.49
66019;HTU21D;52787;51.084;5.816;2024-03-25T03:19:20;6.23;79.70
66019;HTU21D;52787;51.084;5.816;2024-03-25T03:21:46;6.16;79.71
66019;HTU21D;52787;51.084;5.816;2024-03-25T03:24:12;6.12;80.01
66019;HTU21D;52787;51.084;5.816;2024-03-25T03:26:38;6.04;80.20
66019;HTU21D;52787;51.084;5.816;2024-03-25T03:29:04;5.98;80.62
66019;HTU21D;52787;51.084;5.816;2024-03-25T03:31:29;6.01;80.96
66019;HTU21D;52787;51.084;5.816;2024-03-25T03:33:55;6.04;80.67
66019;HTU21D;52787;51.084;5.816;2024-03-25T03:36:22;5.98;80.80
66019;HTU21D;52787;51.084;5.816;2024-03-25T03:38:50;5.98;81.33
66019;HTU21D;52787;51.084;5.816;2024-03-25T03:41:17;6.05;81.12
66019;HTU21D;52787;51.084;5.816;2024-03-25T03:43:43;6.04;80.95
66019;HTU21D;52787;51.084;5.816;2024-03-25T03:46:08;5.93;81.47
66019;HTU21D;52787;51.084;5.816;2024-03-25T03:48:34;5.93;81.85
66019;HTU21D;52787;51.084;5.816;2024-03-25T03:51:01;5.91;82.15
66019;HTU21D;52787;51.084;5.816;2024-03-25T03:53:27;5.91;82.26
66019;HTU21D;52787;51.084;5.816;2024-03-25T03:55:57;5.89;82.06
66019;HTU21D;52787;51.084;5.816;2024-03-25T03:58:25;5.90;82.10
66019;HTU21D;52787;51.084;5.816;2024-03-25T04:00:51;5.86;81.95
66019;HTU21D;52787;51.084;5.816;2024-03-25T04:03:18;5.81;81.95
66019;HTU21D;52787;51.084;5.816;2024-03-25T04:05:44;5.80;82.12
66019;HTU21D;52787;51.084;5.816;2024-03-25T04:08:10;5.80;82.13
66019;HTU21D;52787;51.084;5.816;2024-03-25T04:10:37;5.79;82.03
66019;HTU21D;52787;51.084;5.816;2024-03-25T04:13:04;5.76;82.13
66019;HTU21D;52787;51.084;5.816;2024-03-25T04:15:34;5.76;82.06
66019;HTU21D;52787;51.084;5.816;2024-03-25T04:18:00;5.72;82.23
66019;HTU21D;52787;51.084;5.816;2024-03-25T04:20:27;5.76;82.06
66019;HTU21D;52787;51.084;5.816;2024-03-25T04:22:56;5.80;81.83
66019;HTU21D;52787;51.084;5.816;2024-03-25T04:25:22;5.82;81.38
66019;HTU21D;52787;51.084;5.816;2024-03-25T04:27:48;5.85;81.02
66019;HTU21D;52787;51.084;5.816;2024-03-25T04:30:14;5.86;80.68
66019;HTU21D;52787;51.084;5.816;2024-03-25T04:32:40;5.84;80.62
66019;HTU21D;52787;51.084;5.816;2024-03-25T04:35:07;5.82;80.69
66019;HTU21D;52787;51.084;5.816;2024-03-25T04:37:34;5.83;80.88
66019;HTU21D;52787;51.084;5.816;2024-03-25T04:40:04;5.82;81.08
66019;HTU21D;52787;51.084;5.816;2024-03-25T04:42:30;5.80;81.17
66019;HTU21D;52787;51.084;5.816;2024-03-25T04:44:56;5.77;81.25
66019;HTU21D;52787;51.084;5.816;2024-03-25T04:47:22;5.77;81.23
66019;HTU21D;52787;51.084;5.816;2024-03-25T04:49:48;5.74;81.32
66019;HTU21D;52787;51.084;5.816;2024-03-25T04:52:15;5.67;81.59
66019;HTU21D;52787;51.084;5.816;2024-03-25T04:54:49;5.65;81.63
66019;HTU21D;52787;51.084;5.816;2024-03-25T04:57:15;5.66;81.88
66019;HTU21D;52787;51.084;5.816;2024-03-25T04:59:41;5.70;81.79
66019;HTU21D;52787;51.084;5.816;2024-03-25T05:02:06;5.74;81.44
66019;HTU21D;52787;51.084;5.816;2024-03-25T05:04:32;5.74;81.43
66019;HTU21D;52787;51.084;5.816;2024-03-25T05:06:58;5.71;81.49
66019;HTU21D;52787;51.084;5.816;2024-03-25T05:09:24;5.71;81.66
66019;HTU21D;52787;51.084;5.816;2024-03-25T05:11:50;5.72;81.46
66019;HTU21D;52787;51.084;5.816;2024-03-25T05:14:15;5.72;81.45
66019;HTU21D;52787;51.084;5.816;2024-03-25T05:16:41;5.75;81.45
66019;HTU21D;52787;51.084;5.816;2024-03-25T05:19:07;5.77;81.42
66019;HTU21D;52787;51.084;5.816;2024-03-25T05:21:32;5.83;81.20
66019;HTU21D;52787;51.084;5.816;2024-03-25T05:23:59;5.81;80.99
66019;HTU21D;52787;51.084;5.816;2024-03-25T05:26:25;5.84;80.90
66019;HTU21D;52787;51.084;5.816;2024-03-25T05:28:54;5.85;80.51
66019;HTU21D;52787;51.084;5.816;2024-03-25T05:31:21;5.85;80.33
66019;HTU21D;52787;51.084;5.816;2024-03-25T05:33:47;5.87;80.19
66019;HTU21D;52787;51.084;5.816;2024-03-25T05:36:13;5.90;79.99
66019;HTU21D;52787;51.084;5.816;2024-03-25T05:38:40;5.85;79.84
66019;HTU21D;52787;51.084;5.816;2024-03-25T05:41:07;5.82;80.14
66019;HTU21D;52787;51.084;5.816;2024-03-25T05:43:34;5.84;80.20
66019;HTU21D;52787;51.084;5.816;2024-03-25T05:46:00;5.84;80.17
66019;HTU21D;52787;51.084;5.816;2024-03-25T05:48:26;5.87;80.17
66019;HTU21D;52787;51.084;5.816;2024-03-25T05:51:01;5.86;80.18
66019;HTU21D;52787;51.084;5.816;2024-03-25T05:53:31;5.91;80.17
66019;HTU21D;52787;51.084;5.816;2024-03-25T05:55:57;5.93;80.01
66019;HTU21D;52787;51.084;5.816;2024-03-25T05:58:25;5.94;80.17
66019;HTU21D;52787;51.084;5.816;2024-03-25T06:00:51;5.96;80.16
66019;HTU21D;52787;51.084;5.816;2024-03-25T06:03:19;6.01;79.94
66019;HTU21D;52787;51.084;5.816;2024-03-25T06:05:45;6.06;79.83
66019;HTU21D;52787;51.084;5.816;2024-03-25T06:08:11;6.09;79.62
66019;HTU21D;52787;51.084;5.816;2024-03-25T06:11:06;6.14;79.49
66019;HTU21D;52787;51.084;5.816;2024-03-25T06:13:32;6.21;79.24
66019;HTU21D;52787;51.084;5.816;2024-03-25T06:15:58;6.23;78.92
66019;HTU21D;52787;51.084;5.816;2024-03-25T06:18:24;6.28;78.81
66019;HTU21D;52787;51.084;5.816;2024-03-25T06:20:50;6.31;78.63
66019;HTU21D;52787;51.084;5.816;2024-03-25T06:23:28;6.35;78.74
66019;HTU21D;52787;51.084;5.816;2024-03-25T06:25:55;6.37;78.64
66019;HTU21D;52787;51.084;5.816;2024-03-25T06:28:22;6.42;78.75
66019;HTU21D;52787;51.084;5.816;2024-03-25T06:30:49;6.50;78.80
66019;HTU21D;52787;51.084;5.816;2024-03-25T06:33:34;6.60;78.66
66019;HTU21D;52787;51.084;5.816;2024-03-25T06:36:19;6.70;78.38
66019;HTU21D;52787;51.084;5.816;2024-03-25T06:38:45;6.80;78.30
66019;HTU21D;52787;51.084;5.816;2024-03-25T06:41:11;6.88;78.11
66019;HTU21D;52787;51.084;5.816;2024-03-25T06:43:37;6.91;77.95
66019;HTU21D;52787;51.084;5.816;2024-03-25T06:46:04;6.96;77.84
66019;HTU21D;52787;51.084;5.816;2024-03-25T06:48:30;7.03;77.82
66019;HTU21D;52787;51.084;5.816;2024-03-25T06:50:58;7.10;77.66
66019;HTU21D;52787;51.084;5.816;2024-03-25T06:53:25;7.17;77.39
66019;HTU21D;52787;51.084;5.816;2024-03-25T06:55:52;7.23;77.27
66019;HTU21D;52787;51.084;5.816;2024-03-25T06:58:23;7.28;77.37
66019;HTU21D;52787;51.084;5.816;2024-03-25T07:00:49;7.34;77.34
66019;HTU21D;52787;51.084;5.816;2024-03-25T07:03:17;7.41;77.41
66019;HTU21D;52787;51.084;5.816;2024-03-25T07:05:51;7.48;77.55
66019;HTU21D;52787;51.084;5.816;2024-03-25T07:08:24;7.52;77.66
66019;HTU21D;52787;51.084;5.816;2024-03-25T07:10:50;7.55;78.01
66019;HTU21D;52787;51.084;5.816;2024-03-25T07:13:16;7.58;78.18
66019;HTU21D;52787;51.084;5.816;2024-03-25T07:15:43;7.67;78.43
66019;HTU21D;52787;51.084;5.816;2024-03-25T07:18:09;7.75;78.51
66019;HTU21D;52787;51.084;5.816;2024-03-25T07:20:43;7.89;78.36
66019;HTU21D;52787;51.084;5.816;2024-03-25T07:23:09;7.96;77.60
66019;HTU21D;52787;51.084;5.816;2024-03-25T07:25:36;7.91;77.76
66019;HTU21D;52787;51.084;5.816;2024-03-25T07:28:03;7.92;77.82
66019;HTU21D;52787;51.084;5.816;2024-03-25T07:30:29;7.91;78.00
66019;HTU21D;52787;51.084;5.816;2024-03-25T07:32:56;7.94;78.22
66019;HTU21D;52787;51.084;5.816;2024-03-25T07:35:22;8.02;78.43
66019;HTU21D;52787;51.084;5.816;2024-03-25T07:37:52;8.11;78.53
66019;HTU21D;52787;51.084;5.816;2024-03-25T07:40:19;8.21;78.60
66019;HTU21D;52787;51.084;5.816;2024-03-25T07:42:45;8.33;78.13
66019;HTU21D;52787;51.084;5.816;2024-03-25T07:45:11;8.39;77.18
66019;HTU21D;52787;51.084;5.816;2024-03-25T07:47:37;8.44;76.91
66019;HTU21D;52787;51.084;5.816;2024-03-25T07:50:03;8.51;76.83
66019;HTU21D;52787;51.084;5.816;2024-03-25T07:52:29;8.62;76.61
66019;HTU21D;52787;51.084;5.816;2024-03-25T07:54:55;8.71;76.08
66019;HTU21D;52787;51.084;5.816;2024-03-25T07:57:21;8.78;75.80
66019;HTU21D;52787;51.084;5.816;2024-03-25T07:59:47;8.87;75.65
66019;HTU21D;52787;51.084;5.816;2024-03-25T08:02:13;8.98;75.31
66019;HTU21D;52787;51.084;5.816;2024-03-25T08:04:39;9.06;75.02
66019;HTU21D;52787;51.084;5.816;2024-03-25T08:07:05;9.09;74.56
66019;HTU21D;52787;51.084;5.816;2024-03-25T08:09:31;9.15;74.60
66019;HTU21D;52787;51.084;5.816;2024-03-25T08:11:57;9.22;74.73
66019;HTU21D;52787;51.084;5.816;2024-03-25T08:14:23;9.31;74.91
66019;HTU21D;52787;51.084;5.816;2024-03-25T08:16:49;9.39;74.84
66019;HTU21D;52787;51.084;5.816;2024-03-25T08:19:15;9.42;74.04
66019;HTU21D;52787;51.084;5.816;2024-03-25T08:21:41;9.42;74.39
66019;HTU21D;52787;51.084;5.816;2024-03-25T08:24:07;9.45;74.27
66019;HTU21D;52787;51.084;5.816;2024-03-25T08:26:33;9.45;74.03
66019;HTU21D;52787;51.084;5.816;2024-03-25T08:28:59;9.44;74.22
66019;HTU21D;52787;51.084;5.816;2024-03-25T08:31:25;9.49;73.74
66019;HTU21D;52787;51.084;5.816;2024-03-25T08:33:51;9.50;73.86
66019;HTU21D;52787;51.084;5.816;2024-03-25T08:36:17;9.57;73.67
66019;HTU21D;52787;51.084;5.816;2024-03-25T08:38:44;9.64;74.02
66019;HTU21D;52787;51.084;5.816;2024-03-25T08:41:10;9.74;73.24
66019;HTU21D;52787;51.084;5.816;2024-03-25T08:43:35;9.75;72.89
66019;HTU21D;52787;51.084;5.816;2024-03-25T08:46:01;9.79;72.91
66019;HTU21D;52787;51.084;5.816;2024-03-25T08:48:29;9.85;72.93
66019;HTU21D;52787;51.084;5.816;2024-03-25T08:50:54;9.89;72.87
66019;HTU21D;52787;51.084;5.816;2024-03-25T08:53:20;9.96;73.23
66019;HTU21D;52787;51.084;5.816;2024-03-25T08:55:47;10.01;72.77
66019;HTU21D;52787;51.084;5.816;2024-03-25T08:58:14;10.07;72.79
66019;HTU21D;52787;51.084;5.816;2024-03-25T09:00:44;10.13;72.72
66019;HTU21D;52787;51.084;5.816;2024-03-25T09:03:10;10.18;72.38
66019;HTU21D;52787;51.084;5.816;2024-03-25T09:05:39;10.18;72.11
66019;HTU21D;52787;51.084;5.816;2024-03-25T09:08:05;10.19;71.99
66019;HTU21D;52787;51.084;5.816;2024-03-25T09:10:31;10.21;71.80
66019;HTU21D;52787;51.084;5.816;2024-03-25T09:13:16;10.28;72.51
66019;HTU21D;52787;51.084;5.816;2024-03-25T09:15:42;10.41;72.10
66019;HTU21D;52787;51.084;5.816;2024-03-25T09:18:08;10.56;71.29
66019;HTU21D;52787;51.084;5.816;2024-03-25T09:20:34;10.64;71.13
66019;HTU21D;52787;51.084;5.816;2024-03-25T09:23:00;10.75;71.69
66019;HTU21D;52787;51.084;5.816;2024-03-25T09:25:25;10.92;70.33
66019;HTU21D;52787;51.084;5.816;2024-03-25T09:27:51;11.03;69.65
66019;HTU21D;52787;51.084;5.816;2024-03-25T09:30:18;11.13;69.41
66019;HTU21D;52787;51.084;5.816;2024-03-25T09:32:45;11.31;69.11
66019;HTU21D;52787;51.084;5.816;2024-03-25T09:35:12;11.43;67.94
66019;HTU21D;52787;51.084;5.816;2024-03-25T09:37:38;11.52;67.73
66019;HTU21D;52787;51.084;5.816;2024-03-25T09:40:05;11.69;67.17
66019;HTU21D;52787;51.084;5.816;2024-03-25T09:42:46;11.84;66.69
66019;HTU21D;52787;51.084;5.816;2024-03-25T09:45:16;12.00;66.17
66019;HTU21D;52787;51.084;5.816;2024-03-25T09:47:46;12.08;65.22
66019;HTU21D;52787;51.084;5.816;2024-03-25T09:50:14;12.19;65.17
66019;HTU21D;52787;51.084;5.816;2024-03-25T09:52:48;12.44;64.31
66019;HTU21D;52787;51.084;5.816;2024-03-25T09:55:15;12.64;63.68
66019;HTU21D;52787;51.084;5.816;2024-03-25T09:57:43;12.82;62.59
66019;HTU21D;52787;51.084;5.816;2024-03-25T10:00:10;12.97;61.09
66019;HTU21D;52787;51.084;5.816;2024-03-25T10:02:41;13.11;60.60
66019;HTU21D;52787;51.084;5.816;2024-03-25T10:05:07;13.23;58.44
66019;HTU21D;52787;51.084;5.816;2024-03-25T10:07:34;13.23;58.13
66019;HTU21D;52787;51.084;5.816;2024-03-25T10:10:07;13.39;58.21
66019;HTU21D;52787;51.084;5.816;2024-03-25T10:12:36;13.59;58.67
66019;HTU21D;52787;51.084;5.816;2024-03-25T10:15:02;13.84;58.48
66019;HTU21D;52787;51.084;5.816;2024-03-25T10:17:33;14.17;55.43
66019;HTU21D;52787;51.084;5.816;2024-03-25T10:19:59;14.65;53.90
66019;HTU21D;52787;51.084;5.816;2024-03-25T10:22:25;15.96;50.96
66019;HTU21D;52787;51.084;5.816;2024-03-25T10:24:50;17.77;46.24
66019;HTU21D;52787;51.084;5.816;2024-03-25T10:27:23;19.26;40.52
66019;HTU21D;52787;51.084;5.816;2024-03-25T10:29:53;20.35;36.36
66019;HTU21D;52787;51.084;5.816;2024-03-25T10:32:22;21.10;32.78
66019;HTU21D;52787;51.084;5.816;2024-03-25T10:34:54;21.70;31.03
66019;HTU21D;52787;51.084;5.816;2024-03-25T10:37:21;22.19;30.56
66019;HTU21D;52787;51.084;5.816;2024-03-25T10:39:50;22.60;29.32
66019;HTU21D;52787;51.084;5.816;2024-03-25T10:42:21;22.77;29.20
66019;HTU21D;52787;51.084;5.816;2024-03-25T10:44:48;22.99;28.72
66019;HTU21D;52787;51.084;5.816;2024-03-25T10:47:20;22.83;28.50
66019;HTU21D;52787;51.084;5.816;2024-03-25T10:49:58;22.52;28.85
66019;HTU21D;52787;51.084;5.816;2024-03-25T10:52:26;22.04;28.89
66019;HTU21D;52787;51.084;5.816;2024-03-25T10:54:55;21.19;30.45
66019;HTU21D;52787;51.084;5.816;2024-03-25T10:57:22;20.36;31.78
66019;HTU21D;52787;51.084;5.816;2024-03-25T10:59:49;19.96;33.31
66019;HTU21D;52787;51.084;5.816;2024-03-25T11:02:16;19.53;32.72
66019;HTU21D;52787;51.084;5.816;2024-03-25T11:04:46;19.10;33.40
66019;HTU21D;52787;51.084;5.816;2024-03-25T11:07:15;18.96;34.96
66019;HTU21D;52787;51.084;5.816;2024-03-25T11:09:42;18.92;35.00
66019;HTU21D;52787;51.084;5.816;2024-03-25T11:12:12;18.65;35.90
66019;HTU21D;52787;51.084;5.816;2024-03-25T11:14:39;18.73;34.51
66019;HTU21D;52787;51.084;5.816;2024-03-25T11:17:15;19.45;34.04
66019;HTU21D;52787;51.084;5.816;2024-03-25T11:19:41;20.60;32.25
66019;HTU21D;52787;51.084;5.816;2024-03-25T11:22:09;21.67;29.16
66019;HTU21D;52787;51.084;5.816;2024-03-25T11:24:37;22.47;27.80
66019;HTU21D;52787;51.084;5.816;2024-03-25T11:27:07;23.12;26.33
66019;HTU21D;52787;51.084;5.816;2024-03-25T11:29:34;23.80;24.98
66019;HTU21D;52787;51.084;5.816;2024-03-25T11:32:04;24.64;23.99
66019;HTU21D;52787;51.084;5.816;2024-03-25T11:34:31;24.88;21.78
66019;HTU21D;52787;51.084;5.816;2024-03-25T11:36:57;24.53;22.29
66019;HTU21D;52787;51.084;5.816;2024-03-25T11:39:24;24.19;22.98
66019;HTU21D;52787;51.084;5.816;2024-03-25T11:41:54;24.17;23.06
66019;HTU21D;52787;51.084;5.816;2024-03-25T11:44:20;25.09;22.55
66019;HTU21D;52787;51.084;5.816;2024-03-25T11:46:50;26.32;21.32
66019;HTU21D;52787;51.084;5.816;2024-03-25T11:49:21;27.23;19.54
66019;HTU21D;52787;51.084;5.816;2024-03-25T11:51:47;28.13;18.80
66019;HTU21D;52787;51.084;5.816;2024-03-25T11:54:13;29.03;17.13
66019;HTU21D;52787;51.084;5.816;2024-03-25T11:56:39;29.77;16.44
66019;HTU21D;52787;51.084;5.816;2024-03-25T11:59:06;30.40;15.90
66019;HTU21D;52787;51.084;5.816;2024-03-25T12:01:32;30.85;15.36
66019;HTU21D;52787;51.084;5.816;2024-03-25T12:04:10;31.16;14.81
66019;HTU21D;52787;51.084;5.816;2024-03-25T12:06:36;30.78;14.24
66019;HTU21D;52787;51.084;5.816;2024-03-25T12:09:02;30.24;14.26
66019;HTU21D;52787;51.084;5.816;2024-03-25T12:11:47;29.27;14.88
66019;HTU21D;52787;51.084;5.816;2024-03-25T12:14:14;28.23;15.93
66019;HTU21D;52787;51.084;5.816;2024-03-25T12:16:41;27.13;18.12
66019;HTU21D;52787;51.084;5.816;2024-03-25T12:19:08;26.01;20.66
66019;HTU21D;52787;51.084;5.816;2024-03-25T12:21:34;25.73;21.18
66019;HTU21D;52787;51.084;5.816;2024-03-25T12:24:00;25.87;21.47
66019;HTU21D;52787;51.084;5.816;2024-03-25T12:26:26;26.30;21.40
66019;HTU21D;52787;51.084;5.816;2024-03-25T12:28:52;26.51;20.60
66019;HTU21D;52787;51.084;5.816;2024-03-25T12:31:18;27.27;18.60
66019;HTU21D;52787;51.084;5.816;2024-03-25T12:33:44;28.04;18.05
66019;HTU21D;52787;51.084;5.816;2024-03-25T12:36:13;28.55;17.25
66019;HTU21D;52787;51.084;5.816;2024-03-25T12:38:39;28.79;17.09
66019;HTU21D;52787;51.084;5.816;2024-03-25T12:41:09;29.28;17.07
66019;HTU21D;52787;51.084;5.816;2024-03-25T12:43:42;29.48;15.90
66019;HTU21D;52787;51.084;5.816;2024-03-25T12:46:08;29.54;16.70
66019;HTU21D;52787;51.084;5.816;2024-03-25T12:48:36;29.66;16.48
66019;HTU21D;52787;51.084;5.816;2024-03-25T12:51:02;30.04;16.35
66019;HTU21D;52787;51.084;5.816;2024-03-25T12:53:28;30.35;15.86
66019;HTU21D;52787;51.084;5.816;2024-03-25T12:55:54;30.72;15.42
66019;HTU21D;52787;51.084;5.816;2024-03-25T12:58:20;30.96;14.67
66019;HTU21D;52787;51.084;5.816;2024-03-25T13:00:46;30.93;14.42
66019;HTU21D;52787;51.084;5.816;2024-03-25T13:03:13;30.28;13.46
66019;HTU21D;52787;51.084;5.816;2024-03-25T13:05:39;28.80;16.00
66019;HTU21D;52787;51.084;5.816;2024-03-25T13:08:05;27.86;16.97
66019;HTU21D;52787;51.084;5.816;2024-03-25T13:10:32;27.06;17.21
66019;HTU21D;52787;51.084;5.816;2024-03-25T13:12:59;26.30;18.06
66019;HTU21D;52787;51.084;5.816;2024-03-25T13:15:26;25.65;18.05
66019;HTU21D;52787;51.084;5.816;2024-03-25T13:17:53;25.10;18.09
66019;HTU21D;52787;51.084;5.816;2024-03-25T13:20:19;24.63;18.91
66019;HTU21D;52787;51.084;5.816;2024-03-25T13:22:45;24.11;19.81
66019;HTU21D;52787;51.084;5.816;2024-03-25T13:25:12;23.72;21.44
66019;HTU21D;52787;51.084;5.816;2024-03-25T13:27:38;23.82;21.53
66019;HTU21D;52787;51.084;5.816;2024-03-25T13:30:05;24.04;21.60
66019;HTU21D;52787;51.084;5.816;2024-03-25T13:32:32;24.24;20.58
66019;HTU21D;52787;51.084;5.816;2024-03-25T13:34:58;24.65;19.76
66019;HTU21D;52787;51.084;5.816;2024-03-25T13:37:24;25.58;19.18
66019;HTU21D;52787;51.084;5.816;2024-03-25T13:39:52;25.81;17.83
66019;HTU21D;52787;51.084;5.816;2024-03-25T13:42:18;25.64;18.79
66019;HTU21D;52787;51.084;5.816;2024-03-25T13:44:44;26.95;16.81
66019;HTU21D;52787;51.084;5.816;2024-03-25T13:47:10;27.51;15.84
66019;HTU21D;52787;51.084;5.816;2024-03-25T13:49:36;28.50;14.52
66019;HTU21D;52787;51.084;5.816;2024-03-25T13:52:02;28.31;14.22
66019;HTU21D;52787;51.084;5.816;2024-03-25T13:54:30;27.60;15.77
66019;HTU21D;52787;51.084;5.816;2024-03-25T13:56:57;28.37;15.69
66019;HTU21D;52787;51.084;5.816;2024-03-25T13:59:22;29.17;13.17
66019;HTU21D;52787;51.084;5.816;2024-03-25T14:01:48;28.58;13.42
66019;HTU21D;52787;51.084;5.816;2024-03-25T14:04:14;28.74;13.99
66019;HTU21D;52787;51.084;5.816;2024-03-25T14:06:40;28.08;14.39
66019;HTU21D;52787;51.084;5.816;2024-03-25T14:09:07;26.39;16.03
66019;HTU21D;52787;51.084;5.816;2024-03-25T14:11:34;25.02;17.20
66019;HTU21D;52787;51.084;5.816;2024-03-25T14:14:02;24.99;19.02
66019;HTU21D;52787;51.084;5.816;2024-03-25T14:16:28;26.43;17.82
66019;HTU21D;52787;51.084;5.816;2024-03-25T14:18:55;27.72;17.54
66019;HTU21D;52787;51.084;5.816;2024-03-25T14:21:20;28.71;16.51
66019;HTU21D;52787;51.084;5.816;2024-03-25T14:23:46;29.27;16.30
66019;HTU21D;52787;51.084;5.816;2024-03-25T14:26:13;28.56;16.12
66019;HTU21D;52787;51.084;5.816;2024-03-25T14:28:42;27.17;18.47
66019;HTU21D;52787;51.084;5.816;2024-03-25T14:31:08;27.04;18.96
66019;HTU21D;52787;51.084;5.816;2024-03-25T14:33:34;27.14;20.18
66019;HTU21D;52787;51.084;5.816;2024-03-25T14:36:01;27.57;19.31
66019;HTU21D;52787;51.084;5.816;2024-03-25T14:38:26;27.73;18.57
66019;HTU21D;52787;51.084;5.816;2024-03-25T14:40:52;26.49;19.52
66019;HTU21D;52787;51.084;5.816;2024-03-25T14:43:18;24.77;21.76
66019;HTU21D;52787;51.084;5.816;2024-03-25T14:45:45;23.37;24.30
66019;HTU21D;52787;51.084;5.816;2024-03-25T14:48:12;22.37;26.45
66019;HTU21D;52787;51.084;5.816;2024-03-25T14:50:37;21.63;27.43
66019;HTU21D;52787;51.084;5.816;2024-03-25T14:53:04;21.19;28.71
66019;HTU21D;52787;51.084;5.816;2024-03-25T14:55:30;21.34;29.97
66019;HTU21D;52787;51.084;5.816;2024-03-25T14:57:56;21.73;29.32
66019;HTU21D;52787;51.084;5.816;2024-03-25T15:00:23;21.98;28.95
66019;HTU21D;52787;51.084;5.816;2024-03-25T15:02:51;22.16;29.03
66019;HTU21D;52787;51.084;5.816;2024-03-25T15:05:17;22.20;28.79
66019;HTU21D;52787;51.084;5.816;2024-03-25T15:07:44;22.19;29.08
66019;HTU21D;52787;51.084;5.816;2024-03-25T15:10:10;22.09;28.87
66019;HTU21D;52787;51.084;5.816;2024-03-25T15:12:37;22.26;28.84
66019;HTU21D;52787;51.084;5.816;2024-03-25T15:15:04;22.88;28.30
66019;HTU21D;52787;51.084;5.816;2024-03-25T15:17:35;23.82;26.77
66019;HTU21D;52787;51.084;5.816;2024-03-25T15:20:03;24.90;24.40
66019;HTU21D;52787;51.084;5.816;2024-03-25T15:22:31;25.23;23.98
66019;HTU21D;52787;51.084;5.816;2024-03-25T15:24:57;26.10;23.34